createdAt,value
2018-08-23T00:00:37.362Z,26.57
2018-08-23T00:03:15.396Z,25.47
2018-08-23T00:05:49.357Z,21.97
2018-08-23T00:08:17.935Z,26.40
2018-08-23T00:10:46.860Z,25.27
2018-08-23T00:13:15.333Z,25.43
2018-08-23T00:15:43.824Z,29.43
2018-08-23T00:18:12.277Z,29.73
2018-08-23T00:20:41.147Z,31.47
2018-08-23T00:23:09.735Z,32.20
2018-08-23T00:25:38.861Z,33.40
2018-08-23T00:28:07.872Z,38.07
2018-08-23T00:30:36.754Z,48.03
2018-08-23T00:33:05.977Z,34.33
2018-08-23T00:35:38.121Z,34.73
2018-08-23T00:38:07.311Z,34.97
2018-08-23T00:40:38.309Z,37.57
2018-08-23T00:43:07.928Z,36.90
2018-08-23T00:45:36.400Z,40.00
2018-08-23T00:48:04.945Z,36.40
2018-08-23T00:50:49.573Z,35.30
2018-08-23T00:53:18.260Z,34.60
2018-08-23T00:55:46.723Z,31.47
2018-08-23T00:58:15.217Z,30.70
2018-08-23T01:00:48.581Z,36.73
2018-08-23T01:03:17.508Z,33.37
2018-08-23T01:05:46.630Z,37.47
2018-08-23T01:08:19.348Z,38.87
2018-08-23T01:10:47.866Z,34.00
2018-08-23T01:13:16.394Z,42.73
2018-08-23T01:15:44.951Z,37.77
2018-08-23T01:18:17.021Z,40.87
2018-08-23T01:20:46.692Z,39.63
2018-08-23T01:23:15.171Z,40.70
2018-08-23T01:25:44.823Z,43.30
2018-08-23T01:28:13.345Z,40.43
2018-08-23T01:30:42.204Z,38.63
2018-08-23T01:33:13.861Z,40.97
2018-08-23T01:35:43.784Z,45.70
2018-08-23T01:38:12.837Z,39.60
2018-08-23T01:40:41.633Z,38.43
2018-08-23T01:43:10.155Z,45.80
2018-08-23T01:45:38.636Z,42.57
2018-08-23T01:48:08.559Z,43.43
2018-08-23T01:50:37.068Z,42.80
2018-08-23T01:53:05.665Z,40.60
2018-08-23T01:55:34.114Z,41.10
2018-08-23T01:58:02.646Z,45.13
2018-08-23T02:00:33.391Z,40.77
2018-08-23T02:03:03.000Z,40.40
2018-08-23T02:05:31.564Z,37.43
2018-08-23T02:08:00.031Z,39.37
2018-08-23T02:10:28.515Z,37.53
2018-08-23T02:12:58.008Z,42.07
2018-08-23T02:15:28.310Z,41.37
2018-08-23T02:17:57.748Z,42.30
2018-08-23T02:20:27.171Z,42.13
2018-08-23T02:22:56.232Z,42.60
2018-08-23T02:25:25.100Z,40.93
2018-08-23T02:28:01.396Z,45.90
2018-08-23T02:30:42.345Z,49.80
2018-08-23T02:33:12.046Z,46.60
2018-08-23T02:35:41.245Z,45.00
2018-08-23T02:38:10.000Z,46.77
2018-08-23T02:40:39.491Z,45.13
2018-08-23T02:43:08.198Z,48.00
2018-08-23T02:45:42.006Z,51.50
2018-08-23T02:48:10.524Z,53.90
2018-08-23T02:50:39.005Z,50.40
2018-08-23T02:53:24.233Z,51.50
2018-08-23T02:55:53.698Z,49.23
2018-08-23T02:58:23.747Z,54.83
2018-08-23T03:00:52.247Z,53.83
2018-08-23T03:03:20.957Z,53.10
2018-08-23T03:05:49.414Z,48.57
2018-08-23T03:08:22.465Z,56.37
2018-08-23T03:10:51.040Z,52.23
2018-08-23T03:13:24.080Z,51.27
2018-08-23T03:15:52.609Z,56.30
2018-08-23T03:18:21.097Z,55.53
2018-08-23T03:20:54.299Z,59.00
2018-08-23T03:23:22.745Z,57.60
2018-08-23T03:25:51.228Z,60.47
2018-08-23T03:28:19.705Z,60.97
2018-08-23T03:30:52.564Z,61.00
2018-08-23T03:33:21.008Z,59.17
2018-08-23T03:35:49.476Z,52.90
2018-08-23T03:38:18.028Z,51.93
2018-08-23T03:40:46.540Z,51.17
2018-08-23T03:43:15.016Z,51.03
2018-08-23T03:45:43.484Z,48.97
2018-08-23T03:48:11.939Z,53.70
2018-08-23T03:50:45.591Z,54.67
2018-08-23T03:53:14.157Z,55.37
2018-08-23T03:55:42.692Z,52.10
2018-08-23T03:58:11.225Z,58.73
2018-08-23T04:00:57.951Z,62.60
2018-08-23T04:03:26.439Z,54.43
2018-08-23T04:05:55.352Z,59.17
2018-08-23T04:08:23.824Z,60.53
2018-08-23T04:10:52.310Z,55.73
2018-08-23T04:13:20.836Z,62.63
2018-08-23T04:15:49.311Z,60.33
2018-08-23T04:18:18.015Z,58.23
2018-08-23T04:20:52.650Z,58.83
2018-08-23T04:23:21.149Z,68.77
2018-08-23T04:25:49.649Z,69.33
2018-08-23T04:28:18.173Z,71.47
2018-08-23T04:30:46.649Z,75.83
2018-08-23T04:33:15.441Z,69.73
2018-08-23T04:35:43.877Z,75.17
2018-08-23T04:38:12.332Z,77.37
2018-08-23T04:40:45.917Z,68.90
2018-08-23T04:43:14.399Z,57.90
2018-08-23T04:45:42.970Z,52.07
2018-08-23T04:48:11.480Z,60.50
2018-08-23T04:50:40.806Z,66.80
2018-08-23T04:53:09.317Z,65.77
2018-08-23T04:55:37.797Z,64.70
2018-08-23T04:58:06.353Z,71.03
2018-08-23T05:00:34.837Z,68.00
2018-08-23T05:03:03.341Z,80.70
2018-08-23T05:05:31.826Z,96.77
2018-08-23T05:08:00.318Z,87.40
2018-08-23T05:10:28.783Z,92.90
2018-08-23T05:12:57.269Z,97.57
2018-08-23T05:15:25.807Z,104.23
2018-08-23T05:17:54.285Z,125.77
2018-08-23T05:20:22.872Z,113.00
2018-08-23T05:22:56.811Z,121.40
2018-08-23T05:25:25.997Z,116.73
2018-08-23T05:28:11.381Z,123.90
2018-08-23T05:30:40.092Z,128.00
2018-08-23T05:33:23.396Z,116.90
2018-08-23T05:35:51.924Z,114.10
2018-08-23T05:38:20.809Z,124.93
2018-08-23T05:41:03.323Z,116.70
2018-08-23T05:43:31.792Z,121.10
2018-08-23T05:46:00.882Z,126.60
2018-08-23T05:48:30.261Z,131.37
2018-08-23T05:50:59.418Z,118.30
2018-08-23T05:53:27.936Z,128.47
2018-08-23T05:55:57.784Z,101.63
2018-08-23T05:58:30.497Z,113.13
2018-08-23T06:00:59.015Z,76.43
2018-08-23T06:03:27.549Z,68.77
2018-08-23T06:05:56.067Z,67.47
2018-08-23T06:08:24.666Z,75.23
2018-08-23T06:11:01.450Z,79.80
2018-08-23T06:13:33.175Z,82.67
2018-08-23T06:16:01.678Z,77.73
2018-08-23T06:18:30.153Z,73.30
2018-08-23T06:20:58.700Z,71.37
2018-08-23T06:24:10.012Z,80.47
2018-08-23T06:26:46.342Z,81.43
2018-08-23T06:29:17.873Z,77.43
2018-08-23T06:31:47.014Z,80.67
2018-08-23T06:34:15.527Z,75.70
2018-08-23T06:36:46.290Z,74.73
2018-08-23T06:39:14.743Z,84.57
2018-08-23T06:41:43.244Z,79.80
2018-08-23T06:44:12.119Z,88.10
2018-08-23T06:46:40.597Z,78.83
2018-08-23T06:49:09.103Z,77.00
2018-08-23T06:51:37.635Z,84.17
2018-08-23T06:54:06.134Z,86.37
2018-08-23T06:56:37.560Z,83.67
2018-08-23T06:59:06.376Z,82.80
2018-08-23T07:01:40.427Z,77.30
2018-08-23T07:04:11.792Z,90.63
2018-08-23T07:06:40.299Z,81.70
2018-08-23T07:09:17.043Z,84.57
2018-08-23T07:11:45.869Z,92.17
2018-08-23T07:14:15.392Z,92.10
2018-08-23T07:16:47.788Z,93.37
2018-08-23T07:19:28.019Z,93.13
2018-08-23T07:21:57.216Z,106.97
2018-08-23T07:24:44.159Z,98.13
2018-08-23T07:27:14.969Z,106.73
2018-08-23T07:29:48.684Z,101.37
2018-08-23T07:32:22.480Z,94.03
2018-08-23T07:35:02.133Z,89.37
2018-08-23T07:37:31.508Z,85.20
2018-08-23T07:40:05.140Z,86.83
2018-08-23T07:42:34.492Z,89.10
2018-08-23T07:45:03.299Z,86.30
2018-08-23T07:47:32.512Z,82.63
2018-08-23T07:50:02.249Z,88.17
2018-08-23T07:52:31.911Z,89.73
2018-08-23T07:55:01.744Z,84.97
2018-08-23T07:57:32.387Z,82.33
2018-08-23T08:00:02.471Z,81.40
2018-08-23T08:02:31.031Z,81.93
2018-08-23T08:04:59.861Z,78.37
2018-08-23T08:07:30.341Z,78.03
2018-08-23T08:10:01.035Z,85.60
2018-08-23T08:12:36.716Z,81.27
2018-08-23T08:15:10.685Z,80.83
2018-08-23T08:17:39.053Z,76.60
2018-08-23T08:20:09.188Z,80.53
2018-08-23T08:22:37.731Z,72.00
2018-08-23T08:25:13.184Z,75.10
2018-08-23T08:27:41.835Z,75.37
2018-08-23T08:30:12.409Z,74.63
2018-08-23T08:32:40.861Z,75.80
2018-08-23T08:35:16.392Z,77.93
2018-08-23T08:37:46.171Z,77.03
2018-08-23T08:40:19.109Z,85.67
2018-08-23T08:42:47.551Z,82.27
2018-08-23T08:45:16.069Z,76.03
2018-08-23T08:47:45.838Z,73.43
2018-08-23T08:50:14.772Z,78.70
2018-08-23T08:52:43.268Z,79.77
2018-08-23T08:55:13.316Z,75.43
2018-08-23T08:57:46.161Z,75.73
2018-08-23T09:00:14.707Z,76.90
2018-08-23T09:02:43.266Z,77.57
2018-08-23T09:05:12.144Z,72.40
2018-08-23T09:07:42.548Z,80.07
2018-08-23T09:10:11.061Z,77.00
2018-08-23T09:12:44.956Z,77.70
2018-08-23T09:15:13.441Z,73.53
2018-08-23T09:17:46.967Z,73.03
2018-08-23T09:20:18.416Z,79.03
2018-08-23T09:22:55.009Z,80.67
2018-08-23T09:25:34.069Z,73.23
2018-08-23T09:28:02.625Z,68.87
2018-08-23T09:30:32.316Z,67.30
2018-08-23T09:33:06.089Z,68.80
2018-08-23T09:35:35.176Z,70.90
2018-08-23T09:38:09.775Z,56.43
2018-08-23T09:40:38.361Z,69.13
2018-08-23T09:43:06.874Z,66.30
2018-08-23T09:45:36.175Z,62.77
2018-08-23T09:48:04.739Z,73.37
2018-08-23T09:50:33.274Z,66.27
2018-08-23T09:53:01.824Z,67.23
2018-08-23T09:55:32.869Z,61.47
2018-08-23T09:58:01.497Z,61.20
2018-08-23T10:00:35.396Z,62.60
2018-08-23T10:03:09.032Z,66.73
2018-08-23T10:05:47.668Z,65.77
2018-08-23T10:08:22.102Z,64.47
2018-08-23T10:10:55.857Z,63.95
2018-08-23T10:13:29.779Z,68.60
2018-08-23T10:16:04.042Z,70.73
2018-08-23T10:18:37.866Z,75.60
2018-08-23T10:21:06.426Z,65.70
2018-08-23T10:23:34.884Z,72.20
2018-08-23T10:26:08.580Z,70.77
2018-08-23T10:28:42.550Z,66.07
2018-08-23T10:31:11.059Z,68.53
2018-08-23T10:33:39.544Z,66.87
2018-08-23T10:36:08.033Z,61.70
2018-08-23T10:38:36.536Z,63.50
2018-08-23T10:41:06.073Z,66.20
2018-08-23T10:43:39.771Z,64.20
2018-08-23T10:46:08.220Z,65.83
2018-08-23T10:48:36.704Z,60.55
2018-08-23T10:51:05.372Z,57.70
2018-08-23T10:53:33.749Z,57.17
2018-08-23T10:56:02.407Z,60.10
2018-08-23T10:58:30.870Z,61.53
2018-08-23T11:00:59.753Z,58.50
2018-08-23T11:03:28.990Z,47.38
2018-08-23T11:05:57.469Z,46.77
2018-08-23T11:08:30.029Z,51.92
2018-08-23T11:11:36.315Z,44.25
2018-08-23T11:14:10.222Z,49.30
2018-08-23T11:16:44.039Z,46.35
2018-08-23T11:19:17.821Z,41.35
2018-08-23T11:21:46.327Z,40.23
2018-08-23T11:24:14.799Z,43.08
2018-08-23T11:26:43.279Z,42.05
2018-08-23T11:29:11.840Z,38.48
2018-08-23T11:31:40.376Z,42.55
2018-08-23T11:34:08.874Z,39.30
2018-08-23T11:36:37.391Z,41.15
2018-08-23T11:39:08.333Z,34.33
2018-08-23T11:41:36.853Z,34.15
2018-08-23T11:44:05.393Z,35.45
2018-08-23T11:46:33.921Z,32.17
2018-08-23T11:49:02.592Z,29.23
2018-08-23T11:51:31.120Z,25.60
2018-08-23T11:53:59.666Z,25.70
2018-08-23T11:56:28.241Z,23.60
2018-08-23T11:58:56.803Z,25.43
2018-08-23T12:01:25.477Z,18.20
2018-08-23T12:03:54.022Z,20.05
2018-08-23T12:06:22.518Z,17.70
2018-08-23T12:08:51.001Z,21.48
2018-08-23T12:11:19.532Z,22.48
2018-08-23T12:13:49.707Z,18.42
2018-08-23T12:16:18.471Z,16.42
2018-08-23T12:18:47.073Z,24.00
2018-08-23T12:21:15.757Z,27.62
2018-08-23T12:23:44.272Z,20.02
2018-08-23T12:26:12.769Z,17.23
2018-08-23T12:28:46.523Z,22.67
2018-08-23T12:31:14.988Z,17.90
2018-08-23T12:33:43.546Z,17.17
2018-08-23T12:36:12.524Z,18.10
2018-08-23T12:38:46.422Z,17.00
2018-08-23T12:41:20.097Z,17.73
2018-08-23T12:43:49.764Z,12.40
2018-08-23T12:46:18.610Z,17.07
2018-08-23T12:48:47.673Z,13.68
2018-08-23T12:51:16.182Z,14.98
2018-08-23T12:53:44.662Z,16.25
2018-08-23T12:56:13.315Z,14.18
2018-08-23T12:58:41.760Z,13.65
2018-08-23T13:01:10.276Z,11.10
2018-08-23T13:03:38.867Z,12.35
2018-08-23T13:06:07.378Z,13.43
2018-08-23T13:08:35.846Z,18.25
2018-08-23T13:11:04.412Z,15.50
2018-08-23T13:13:32.849Z,14.38
2018-08-23T13:16:01.344Z,13.22
2018-08-23T13:18:29.814Z,12.50
2018-08-23T13:20:58.328Z,10.48
2018-08-23T13:23:27.016Z,13.93
2018-08-23T13:25:57.624Z,12.53
2018-08-23T13:28:27.271Z,11.35
2018-08-23T13:30:55.799Z,11.15
2018-08-23T13:33:25.363Z,10.23
2018-08-23T13:35:53.836Z,10.15
2018-08-23T13:38:22.369Z,9.63
2018-08-23T13:40:50.801Z,10.53
2018-08-23T13:43:19.496Z,10.45
2018-08-23T13:45:47.933Z,9.45
2018-08-23T13:48:16.598Z,11.45
2018-08-23T13:50:45.112Z,9.05
2018-08-23T13:53:13.729Z,12.68
2018-08-23T13:55:42.193Z,10.82
2018-08-23T13:58:10.792Z,11.03
2018-08-23T14:00:40.040Z,14.80
2018-08-23T14:03:09.857Z,13.20
2018-08-23T14:05:39.500Z,10.03
2018-08-23T14:08:08.178Z,9.08
2018-08-23T14:10:36.749Z,9.03
2018-08-23T14:13:05.550Z,12.68
2018-08-23T14:15:39.365Z,11.35
2018-08-23T14:18:07.856Z,9.70
2018-08-23T14:20:36.408Z,11.28
2018-08-23T14:23:05.006Z,10.80
2018-08-23T14:25:33.604Z,15.13
2018-08-23T14:28:02.123Z,11.20
2018-08-23T14:30:30.735Z,11.33
2018-08-23T14:32:59.457Z,11.57
2018-08-23T14:35:28.031Z,12.60
2018-08-23T14:37:56.561Z,11.28
2018-08-23T14:40:25.179Z,12.53
2018-08-23T14:42:53.636Z,13.32
2018-08-23T14:45:27.460Z,13.50
2018-08-23T14:48:01.146Z,15.08
2018-08-23T14:50:29.651Z,11.95
2018-08-23T14:52:58.414Z,11.35
2018-08-23T14:55:32.074Z,10.68
2018-08-23T14:58:00.588Z,11.15
2018-08-23T15:00:29.144Z,10.28
2018-08-23T15:02:57.670Z,15.93
2018-08-23T15:05:26.248Z,12.15
2018-08-23T15:07:54.758Z,12.73
2018-08-23T15:10:23.205Z,9.58
2018-08-23T15:12:51.755Z,10.90
2018-08-23T15:15:24.374Z,13.25
2018-08-23T15:17:52.984Z,11.00
2018-08-23T15:20:21.456Z,10.30
2018-08-23T15:22:49.961Z,16.00
2018-08-23T15:25:18.469Z,10.53
2018-08-23T15:27:47.066Z,11.22
2018-08-23T15:30:18.773Z,14.25
2018-08-23T15:32:47.214Z,10.20
2018-08-23T15:35:15.706Z,14.50
2018-08-23T15:37:44.264Z,14.10
2018-08-23T15:40:12.765Z,9.28
2018-08-23T15:42:41.288Z,12.65
2018-08-23T15:45:09.765Z,11.43
2018-08-23T15:47:38.232Z,11.85
2018-08-23T15:50:06.788Z,13.55
2018-08-23T15:52:35.271Z,12.35
2018-08-23T15:55:03.862Z,13.70
2018-08-23T15:57:32.283Z,13.83
2018-08-23T16:00:00.752Z,14.23
2018-08-23T16:02:29.338Z,11.28
2018-08-23T16:04:57.848Z,16.00
2018-08-23T16:07:26.384Z,12.68
2018-08-23T16:09:54.861Z,13.88
2018-08-23T16:12:23.435Z,19.67
2018-08-23T16:14:51.912Z,16.73
2018-08-23T16:17:25.780Z,16.57
2018-08-23T16:19:59.472Z,19.02
2018-08-23T16:22:28.115Z,18.32
2018-08-23T16:24:56.690Z,20.05
2018-08-23T16:27:25.104Z,16.25
2018-08-23T16:29:54.061Z,17.73
2018-08-23T16:32:27.898Z,21.33
2018-08-23T16:34:56.383Z,19.70
2018-08-23T16:37:24.912Z,18.23
2018-08-23T16:39:53.382Z,16.30
2018-08-23T16:42:21.819Z,19.20
2018-08-23T16:44:50.296Z,19.45
2018-08-23T16:47:18.784Z,17.73
2018-08-23T16:49:47.255Z,20.85
2018-08-23T16:52:15.703Z,21.70
2018-08-23T16:54:44.208Z,21.27
2018-08-23T16:57:13.432Z,21.65
2018-08-23T16:59:41.913Z,20.00
2018-08-23T17:02:10.784Z,19.35
2018-08-23T17:04:44.280Z,22.42
2018-08-23T17:07:14.015Z,21.60
2018-08-23T17:09:42.496Z,22.40
2018-08-23T17:12:11.089Z,24.80
2018-08-23T17:14:39.614Z,26.30
2018-08-23T17:17:13.293Z,23.98
2018-08-23T17:19:41.781Z,20.70
2018-08-23T17:22:10.212Z,20.60
2018-08-23T17:24:38.904Z,19.73
2018-08-23T17:27:07.328Z,21.70
2018-08-23T17:29:35.788Z,25.30
2018-08-23T17:32:04.294Z,27.22
2018-08-23T17:34:32.744Z,25.15
2018-08-23T17:37:01.216Z,25.95
2018-08-23T17:39:29.663Z,25.02
2018-08-23T17:41:58.208Z,26.97
2018-08-23T17:44:26.788Z,22.13
2018-08-23T17:46:55.304Z,24.52
2018-08-23T17:49:23.806Z,27.65
2018-08-23T17:51:52.273Z,21.93
2018-08-23T17:54:20.753Z,21.95
2018-08-23T17:56:49.655Z,22.02
2018-08-23T17:59:18.129Z,22.50
2018-08-23T18:01:46.644Z,23.95
2018-08-23T18:04:15.114Z,24.63
2018-08-23T18:06:43.634Z,23.60
2018-08-23T18:09:13.355Z,24.85
2018-08-23T18:11:42.012Z,21.50
2018-08-23T18:14:10.612Z,21.57
2018-08-23T18:16:44.503Z,18.85
2018-08-23T18:19:20.169Z,21.87
2018-08-23T18:21:48.642Z,20.00
2018-08-23T18:24:17.128Z,18.75
2018-08-23T18:26:45.576Z,18.30
2018-08-23T18:29:14.080Z,18.57
2018-08-23T18:31:42.615Z,17.57
2018-08-23T18:34:11.067Z,20.62
2018-08-23T18:36:39.532Z,17.02
2018-08-23T18:39:09.219Z,18.85
2018-08-23T18:41:37.691Z,18.13
2018-08-23T18:44:06.348Z,17.93
2018-08-23T18:46:34.842Z,23.97
2018-08-23T18:49:03.461Z,15.50
2018-08-23T18:51:32.399Z,16.17
2018-08-23T18:54:01.287Z,16.07
2018-08-23T18:56:30.439Z,14.70
2018-08-23T18:58:59.141Z,19.17
2018-08-23T19:01:27.660Z,17.93
2018-08-23T19:03:56.147Z,22.17
2018-08-23T19:06:39.972Z,16.33
2018-08-23T19:09:10.896Z,16.00
2018-08-23T19:11:39.380Z,17.57
2018-08-23T19:14:07.860Z,16.97
2018-08-23T19:16:41.573Z,14.97
2018-08-23T19:19:10.484Z,15.97
2018-08-23T19:21:38.956Z,18.03
2018-08-23T19:24:07.462Z,18.07
2018-08-23T19:26:35.943Z,22.63
2018-08-23T19:29:04.421Z,20.00
2018-08-23T19:31:32.977Z,20.23
2018-08-23T19:34:01.668Z,16.47
2018-08-23T19:36:30.120Z,21.07
2018-08-23T19:38:58.583Z,19.00
2018-08-23T19:41:27.068Z,17.60
2018-08-23T19:43:55.611Z,20.67
2018-08-23T19:46:29.428Z,23.40
2018-08-23T19:49:03.312Z,18.23
2018-08-23T19:51:31.775Z,16.87
2018-08-23T19:54:00.598Z,18.70
2018-08-23T19:56:29.147Z,21.43
2018-08-23T19:58:57.637Z,18.47
2018-08-23T20:01:26.123Z,19.83
2018-08-23T20:03:54.624Z,24.73
2018-08-23T20:06:23.106Z,22.97
2018-08-23T20:08:51.604Z,19.23
2018-08-23T20:11:20.148Z,21.57
2018-08-23T20:13:48.684Z,17.97
2018-08-23T20:16:17.168Z,21.10
2018-08-23T20:18:45.653Z,22.23
2018-08-23T20:21:14.117Z,19.80
2018-08-23T20:23:42.610Z,20.83
2018-08-23T20:26:11.084Z,20.90
2018-08-23T20:28:39.568Z,22.97
2018-08-23T20:31:08.403Z,26.90
2018-08-23T20:33:36.992Z,19.27
2018-08-23T20:36:05.468Z,21.27
2018-08-23T20:38:33.992Z,19.73
2018-08-23T20:41:02.479Z,20.70
2018-08-23T20:43:30.926Z,21.77
2018-08-23T20:45:59.378Z,22.40
2018-08-23T20:48:27.916Z,23.63
2018-08-23T20:50:56.420Z,18.97
2018-08-23T20:53:24.872Z,22.27
2018-08-23T20:55:53.329Z,19.73
2018-08-23T20:58:21.816Z,21.73
2018-08-23T21:00:50.319Z,21.30
2018-08-23T21:03:18.812Z,24.03
2018-08-23T21:05:47.265Z,25.33
2018-08-23T21:08:16.132Z,24.63
2018-08-23T21:10:44.595Z,21.50
2018-08-23T21:13:13.165Z,19.47
2018-08-23T21:15:41.968Z,22.83
2018-08-23T21:18:11.703Z,21.70
2018-08-23T21:20:41.060Z,22.13
2018-08-23T21:23:09.554Z,22.33
2018-08-23T21:25:38.067Z,21.53
2018-08-23T21:28:06.542Z,21.00
2018-08-23T21:30:34.989Z,19.53
2018-08-23T21:33:03.495Z,22.10
2018-08-23T21:35:32.064Z,18.40
2018-08-23T21:38:00.538Z,19.47
2018-08-23T21:40:29.057Z,20.37
2018-08-23T21:42:57.539Z,20.23
2018-08-23T21:45:26.049Z,21.40
2018-08-23T21:47:54.528Z,21.97
2018-08-23T21:50:23.004Z,23.10
2018-08-23T21:52:51.620Z,22.53
2018-08-23T21:55:24.625Z,19.87
2018-08-23T21:57:53.084Z,21.60
2018-08-23T22:00:21.568Z,18.17
2018-08-23T22:02:50.016Z,21.10
2018-08-23T22:05:18.474Z,19.47
2018-08-23T22:07:46.937Z,20.80
2018-08-23T22:10:15.411Z,21.73
2018-08-23T22:12:43.871Z,18.73
2018-08-23T22:15:12.534Z,19.77
2018-08-23T22:17:41.012Z,21.63
2018-08-23T22:20:09.468Z,16.97
2018-08-23T22:22:37.924Z,16.97
2018-08-23T22:25:06.627Z,20.37
2018-08-23T22:27:35.064Z,20.70
2018-08-23T22:30:03.580Z,21.63
2018-08-23T22:32:32.073Z,23.70
2018-08-23T22:35:00.569Z,19.20
2018-08-23T22:37:29.020Z,18.53
2018-08-23T22:39:57.484Z,19.63
2018-08-23T22:42:26.010Z,18.30
2018-08-23T22:44:54.508Z,19.23
2018-08-23T22:47:22.989Z,19.73
2018-08-23T22:49:51.476Z,18.00
2018-08-23T22:52:20.044Z,20.07
2018-08-23T22:54:48.498Z,21.23
2018-08-23T22:57:17.078Z,20.80
2018-08-23T22:59:45.633Z,19.60
2018-08-23T23:02:18.481Z,20.80
2018-08-23T23:04:47.041Z,19.07
2018-08-23T23:07:15.492Z,19.30
2018-08-23T23:09:43.952Z,21.07
2018-08-23T23:12:12.496Z,18.83
2018-08-23T23:14:41.341Z,20.53
2018-08-23T23:17:10.810Z,19.23
2018-08-23T23:19:39.416Z,18.43
2018-08-23T23:22:08.192Z,21.33
2018-08-23T23:24:41.834Z,20.27
2018-08-23T23:27:10.325Z,19.53
2018-08-23T23:29:38.816Z,18.60
2018-08-23T23:32:07.322Z,21.10
2018-08-23T23:34:35.817Z,22.43
2018-08-23T23:37:04.320Z,21.03
2018-08-23T23:39:32.862Z,22.03
2018-08-23T23:42:01.345Z,21.17
2018-08-23T23:44:29.818Z,20.43
2018-08-23T23:46:58.280Z,20.23
2018-08-23T23:49:26.837Z,22.03
2018-08-23T23:51:55.332Z,23.50
2018-08-23T23:54:23.844Z,17.70
2018-08-23T23:56:52.295Z,16.30
2018-08-23T23:59:20.745Z,19.73
